sensor_id;sensor_type;location;lat;lon;timestamp;temperature;humidity
39675;DHT22;27790;50.840;4.386;2023-09-07T00:00:43;22.40;96.20
39675;DHT22;27790;50.840;4.386;2023-09-07T00:03:08;22.40;96.40
39675;DHT22;27790;50.840;4.386;2023-09-07T00:05:34;22.40;96.50
39675;DHT22;27790;50.840;4.386;2023-09-07T00:08:00;22.30;96.60
39675;DHT22;27790;50.840;4.386;2023-09-07T00:10:26;22.30;96.40
39675;DHT22;27790;50.840;4.386;2023-09-07T00:12:52;22.30;96.60
39675;DHT22;27790;50.840;4.386;2023-09-07T00:15:17;22.20;96.70
39675;DHT22;27790;50.840;4.386;2023-09-07T00:17:45;22.20;96.80
39675;DHT22;27790;50.840;4.386;2023-09-07T00:20:11;22.10;96.90
39675;DHT22;27790;50.840;4.386;2023-09-07T00:22:37;22.20;97.00
39675;DHT22;27790;50.840;4.386;2023-09-07T00:25:04;22.10;97.10
39675;DHT22;27790;50.840;4.386;2023-09-07T00:27:30;22.10;97.10
39675;DHT22;27790;50.840;4.386;2023-09-07T00:29:55;22.10;96.80
39675;DHT22;27790;50.840;4.386;2023-09-07T00:32:21;22.00;96.60
39675;DHT22;27790;50.840;4.386;2023-09-07T00:34:47;22.00;96.60
39675;DHT22;27790;50.840;4.386;2023-09-07T00:37:12;22.00;96.70
39675;DHT22;27790;50.840;4.386;2023-09-07T00:39:38;21.90;96.60
39675;DHT22;27790;50.840;4.386;2023-09-07T00:42:04;21.90;96.40
39675;DHT22;27790;50.840;4.386;2023-09-07T00:44:29;21.90;96.70
39675;DHT22;27790;50.840;4.386;2023-09-07T00:46:56;21.80;96.90
39675;DHT22;27790;50.840;4.386;2023-09-07T00:49:23;21.80;97.00
39675;DHT22;27790;50.840;4.386;2023-09-07T00:51:49;21.70;97.10
39675;DHT22;27790;50.840;4.386;2023-09-07T00:54:15;21.70;97.20
39675;DHT22;27790;50.840;4.386;2023-09-07T00:56:41;21.70;96.80
39675;DHT22;27790;50.840;4.386;2023-09-07T00:59:07;21.60;96.70
39675;DHT22;27790;50.840;4.386;2023-09-07T01:01:35;21.70;96.80
39675;DHT22;27790;50.840;4.386;2023-09-07T01:04:01;21.60;96.60
39675;DHT22;27790;50.840;4.386;2023-09-07T01:06:45;21.60;96.60
39675;DHT22;27790;50.840;4.386;2023-09-07T01:09:15;21.50;96.20
39675;DHT22;27790;50.840;4.386;2023-09-07T01:11:42;21.50;96.30
39675;DHT22;27790;50.840;4.386;2023-09-07T01:14:09;21.50;96.30
39675;DHT22;27790;50.840;4.386;2023-09-07T01:16:36;21.50;96.70
39675;DHT22;27790;50.840;4.386;2023-09-07T01:19:06;21.50;96.80
39675;DHT22;27790;50.840;4.386;2023-09-07T01:21:36;21.40;96.30
39675;DHT22;27790;50.840;4.386;2023-09-07T01:24:06;21.40;96.20
39675;DHT22;27790;50.840;4.386;2023-09-07T01:26:33;21.40;96.20
39675;DHT22;27790;50.840;4.386;2023-09-07T01:29:01;21.40;96.10
39675;DHT22;27790;50.840;4.386;2023-09-07T01:31:26;21.40;96.10
39675;DHT22;27790;50.840;4.386;2023-09-07T01:33:52;21.30;96.10
39675;DHT22;27790;50.840;4.386;2023-09-07T01:36:17;21.30;95.90
39675;DHT22;27790;50.840;4.386;2023-09-07T01:38:43;21.30;96.20
39675;DHT22;27790;50.840;4.386;2023-09-07T01:41:08;21.30;96.00
39675;DHT22;27790;50.840;4.386;2023-09-07T01:43:35;21.30;96.20
39675;DHT22;27790;50.840;4.386;2023-09-07T01:46:01;21.30;96.10
39675;DHT22;27790;50.840;4.386;2023-09-07T01:48:26;21.30;96.20
39675;DHT22;27790;50.840;4.386;2023-09-07T01:50:53;21.20;96.30
39675;DHT22;27790;50.840;4.386;2023-09-07T01:53:19;21.20;96.50
39675;DHT22;27790;50.840;4.386;2023-09-07T01:55:44;21.20;96.40
39675;DHT22;27790;50.840;4.386;2023-09-07T01:58:10;21.20;96.40
39675;DHT22;27790;50.840;4.386;2023-09-07T02:00:37;21.20;96.40
39675;DHT22;27790;50.840;4.386;2023-09-07T02:03:03;21.10;96.40
39675;DHT22;27790;50.840;4.386;2023-09-07T02:05:29;21.10;96.20
39675;DHT22;27790;50.840;4.386;2023-09-07T02:07:54;21.10;96.40
39675;DHT22;27790;50.840;4.386;2023-09-07T02:10:20;21.10;96.10
39675;DHT22;27790;50.840;4.386;2023-09-07T02:12:46;21.10;96.00
39675;DHT22;27790;50.840;4.386;2023-09-07T02:15:12;21.10;96.20
39675;DHT22;27790;50.840;4.386;2023-09-07T02:17:37;21.10;96.50
39675;DHT22;27790;50.840;4.386;2023-09-07T02:20:03;21.10;96.20
39675;DHT22;27790;50.840;4.386;2023-09-07T02:22:35;21.10;96.40
39675;DHT22;27790;50.840;4.386;2023-09-07T02:25:01;21.10;96.50
39675;DHT22;27790;50.840;4.386;2023-09-07T02:27:27;21.00;95.80
39675;DHT22;27790;50.840;4.386;2023-09-07T02:29:52;21.10;95.90
39675;DHT22;27790;50.840;4.386;2023-09-07T02:32:18;21.10;95.90
39675;DHT22;27790;50.840;4.386;2023-09-07T02:34:44;21.10;95.80
39675;DHT22;27790;50.840;4.386;2023-09-07T02:37:09;21.10;95.80
39675;DHT22;27790;50.840;4.386;2023-09-07T02:39:35;21.00;95.90
39675;DHT22;27790;50.840;4.386;2023-09-07T02:42:01;21.00;96.10
39675;DHT22;27790;50.840;4.386;2023-09-07T02:44:26;21.00;96.20
39675;DHT22;27790;50.840;4.386;2023-09-07T02:46:52;21.00;96.20
39675;DHT22;27790;50.840;4.386;2023-09-07T02:49:17;21.00;96.30
39675;DHT22;27790;50.840;4.386;2023-09-07T02:51:43;20.90;96.20
39675;DHT22;27790;50.840;4.386;2023-09-07T02:54:09;20.90;96.20
39675;DHT22;27790;50.840;4.386;2023-09-07T02:56:35;20.90;96.20
39675;DHT22;27790;50.840;4.386;2023-09-07T02:59:00;20.90;96.10
39675;DHT22;27790;50.840;4.386;2023-09-07T03:01:26;20.80;95.80
39675;DHT22;27790;50.840;4.386;2023-09-07T03:03:51;20.80;96.00
39675;DHT22;27790;50.840;4.386;2023-09-07T03:06:17;20.80;96.20
39675;DHT22;27790;50.840;4.386;2023-09-07T03:08:44;20.80;96.30
39675;DHT22;27790;50.840;4.386;2023-09-07T03:11:10;20.70;96.30
39675;DHT22;27790;50.840;4.386;2023-09-07T03:13:36;20.70;96.20
39675;DHT22;27790;50.840;4.386;2023-09-07T03:16:03;20.70;96.40
39675;DHT22;27790;50.840;4.386;2023-09-07T03:18:29;20.70;96.40
39675;DHT22;27790;50.840;4.386;2023-09-07T03:20:56;20.60;96.40
39675;DHT22;27790;50.840;4.386;2023-09-07T03:23:23;20.60;96.50
39675;DHT22;27790;50.840;4.386;2023-09-07T03:25:49;20.60;96.70
39675;DHT22;27790;50.840;4.386;2023-09-07T03:28:14;20.50;96.80
39675;DHT22;27790;50.840;4.386;2023-09-07T03:30:40;20.50;96.90
39675;DHT22;27790;50.840;4.386;2023-09-07T03:33:06;20.50;96.90
39675;DHT22;27790;50.840;4.386;2023-09-07T03:35:32;20.40;97.00
39675;DHT22;27790;50.840;4.386;2023-09-07T03:37:58;20.40;96.80
39675;DHT22;27790;50.840;4.386;2023-09-07T03:40:23;20.40;96.90
39675;DHT22;27790;50.840;4.386;2023-09-07T03:42:49;20.40;97.10
39675;DHT22;27790;50.840;4.386;2023-09-07T03:45:15;20.40;97.20
39675;DHT22;27790;50.840;4.386;2023-09-07T03:47:41;20.40;96.90
39675;DHT22;27790;50.840;4.386;2023-09-07T03:50:08;20.40;97.10
39675;DHT22;27790;50.840;4.386;2023-09-07T03:52:34;20.30;97.00
39675;DHT22;27790;50.840;4.386;2023-09-07T03:55:00;20.30;96.90
39675;DHT22;27790;50.840;4.386;2023-09-07T03:57:26;20.20;96.90
39675;DHT22;27790;50.840;4.386;2023-09-07T03:59:53;20.20;96.90
39675;DHT22;27790;50.840;4.386;2023-09-07T04:02:20;20.30;96.80
39675;DHT22;27790;50.840;4.386;2023-09-07T04:04:51;20.30;97.00
39675;DHT22;27790;50.840;4.386;2023-09-07T04:07:18;20.20;97.10
39675;DHT22;27790;50.840;4.386;2023-09-07T04:09:44;20.30;97.00
39675;DHT22;27790;50.840;4.386;2023-09-07T04:12:11;20.20;97.10
39675;DHT22;27790;50.840;4.386;2023-09-07T04:14:36;20.20;97.10
39675;DHT22;27790;50.840;4.386;2023-09-07T04:17:03;20.20;97.30
39675;DHT22;27790;50.840;4.386;2023-09-07T04:19:28;20.20;97.30
39675;DHT22;27790;50.840;4.386;2023-09-07T04:21:54;20.10;97.30
39675;DHT22;27790;50.840;4.386;2023-09-07T04:24:20;20.20;97.30
39675;DHT22;27790;50.840;4.386;2023-09-07T04:26:47;20.10;97.30
39675;DHT22;27790;50.840;4.386;2023-09-07T04:29:12;20.10;97.40
39675;DHT22;27790;50.840;4.386;2023-09-07T04:31:38;20.10;97.40
39675;DHT22;27790;50.840;4.386;2023-09-07T04:34:04;20.10;97.30
39675;DHT22;27790;50.840;4.386;2023-09-07T04:36:29;20.00;97.40
39675;DHT22;27790;50.840;4.386;2023-09-07T04:38:55;20.00;97.40
39675;DHT22;27790;50.840;4.386;2023-09-07T04:41:21;19.90;97.40
39675;DHT22;27790;50.840;4.386;2023-09-07T04:43:46;19.90;97.40
39675;DHT22;27790;50.840;4.386;2023-09-07T04:46:13;19.90;97.40
39675;DHT22;27790;50.840;4.386;2023-09-07T04:48:40;19.90;97.40
39675;DHT22;27790;50.840;4.386;2023-09-07T04:51:10;19.90;97.60
39675;DHT22;27790;50.840;4.386;2023-09-07T04:53:38;19.80;97.70
39675;DHT22;27790;50.840;4.386;2023-09-07T04:56:06;19.80;97.60
39675;DHT22;27790;50.840;4.386;2023-09-07T04:58:32;19.80;97.70
39675;DHT22;27790;50.840;4.386;2023-09-07T05:01:05;19.80;97.70
39675;DHT22;27790;50.840;4.386;2023-09-07T05:03:31;19.80;97.70
39675;DHT22;27790;50.840;4.386;2023-09-07T05:05:57;19.80;97.70
39675;DHT22;27790;50.840;4.386;2023-09-07T05:08:23;19.80;97.70
39675;DHT22;27790;50.840;4.386;2023-09-07T05:10:57;19.80;97.80
39675;DHT22;27790;50.840;4.386;2023-09-07T05:13:24;19.80;97.90
39675;DHT22;27790;50.840;4.386;2023-09-07T05:15:51;19.80;98.00
39675;DHT22;27790;50.840;4.386;2023-09-07T05:18:18;19.70;98.00
39675;DHT22;27790;50.840;4.386;2023-09-07T05:20:44;19.80;98.10
39675;DHT22;27790;50.840;4.386;2023-09-07T05:23:12;19.80;98.10
39675;DHT22;27790;50.840;4.386;2023-09-07T05:25:48;19.80;98.20
39675;DHT22;27790;50.840;4.386;2023-09-07T05:28:16;19.80;98.20
39675;DHT22;27790;50.840;4.386;2023-09-07T05:30:42;19.80;98.10
39675;DHT22;27790;50.840;4.386;2023-09-07T05:33:13;19.90;98.20
39675;DHT22;27790;50.840;4.386;2023-09-07T05:35:39;19.90;98.20
39675;DHT22;27790;50.840;4.386;2023-09-07T05:38:05;19.90;98.10
39675;DHT22;27790;50.840;4.386;2023-09-07T05:40:38;19.90;98.20
39675;DHT22;27790;50.840;4.386;2023-09-07T05:43:04;20.00;98.00
39675;DHT22;27790;50.840;4.386;2023-09-07T05:45:31;20.10;98.10
39675;DHT22;27790;50.840;4.386;2023-09-07T05:47:57;20.10;98.00
39675;DHT22;27790;50.840;4.386;2023-09-07T05:50:23;20.10;98.00
39675;DHT22;27790;50.840;4.386;2023-09-07T05:52:48;20.20;97.90
39675;DHT22;27790;50.840;4.386;2023-09-07T05:55:14;20.30;97.90
39675;DHT22;27790;50.840;4.386;2023-09-07T05:57:39;20.30;97.90
39675;DHT22;27790;50.840;4.386;2023-09-07T06:00:06;20.40;97.80
39675;DHT22;27790;50.840;4.386;2023-09-07T06:02:31;20.50;97.80
39675;DHT22;27790;50.840;4.386;2023-09-07T06:04:57;20.50;97.40
39675;DHT22;27790;50.840;4.386;2023-09-07T06:07:22;20.60;97.60
39675;DHT22;27790;50.840;4.386;2023-09-07T06:09:48;20.70;97.10
39675;DHT22;27790;50.840;4.386;2023-09-07T06:12:14;20.80;97.10
39675;DHT22;27790;50.840;4.386;2023-09-07T06:14:39;20.90;97.30
39675;DHT22;27790;50.840;4.386;2023-09-07T06:17:05;21.00;96.80
39675;DHT22;27790;50.840;4.386;2023-09-07T06:19:31;21.00;96.60
39675;DHT22;27790;50.840;4.386;2023-09-07T06:21:56;21.10;96.30
39675;DHT22;27790;50.840;4.386;2023-09-07T06:24:22;21.20;96.30
39675;DHT22;27790;50.840;4.386;2023-09-07T06:26:48;21.20;96.30
39675;DHT22;27790;50.840;4.386;2023-09-07T06:29:13;21.20;96.10
39675;DHT22;27790;50.840;4.386;2023-09-07T06:31:39;21.30;95.90
39675;DHT22;27790;50.840;4.386;2023-09-07T06:34:05;21.40;96.10
39675;DHT22;27790;50.840;4.386;2023-09-07T06:36:30;21.50;95.90
39675;DHT22;27790;50.840;4.386;2023-09-07T06:38:57;21.50;95.50
39675;DHT22;27790;50.840;4.386;2023-09-07T06:41:24;21.60;95.60
39675;DHT22;27790;50.840;4.386;2023-09-07T06:43:49;21.70;94.90
39675;DHT22;27790;50.840;4.386;2023-09-07T06:46:16;21.80;95.10
39675;DHT22;27790;50.840;4.386;2023-09-07T06:48:41;21.80;94.70
39675;DHT22;27790;50.840;4.386;2023-09-07T06:51:07;21.90;94.80
39675;DHT22;27790;50.840;4.386;2023-09-07T06:53:34;22.00;94.30
39675;DHT22;27790;50.840;4.386;2023-09-07T06:56:01;22.00;94.30
39675;DHT22;27790;50.840;4.386;2023-09-07T06:58:27;22.00;94.80
39675;DHT22;27790;50.840;4.386;2023-09-07T07:01:00;22.20;94.40
39675;DHT22;27790;50.840;4.386;2023-09-07T07:03:27;22.30;93.60
39675;DHT22;27790;50.840;4.386;2023-09-07T07:05:53;22.50;93.50
39675;DHT22;27790;50.840;4.386;2023-09-07T07:08:18;22.70;93.60
39675;DHT22;27790;50.840;4.386;2023-09-07T07:10:44;22.90;93.10
39675;DHT22;27790;50.840;4.386;2023-09-07T07:13:09;23.30;92.90
39675;DHT22;27790;50.840;4.386;2023-09-07T07:15:35;23.80;92.20
39675;DHT22;27790;50.840;4.386;2023-09-07T07:18:01;24.40;91.70
39675;DHT22;27790;50.840;4.386;2023-09-07T07:20:27;25.00;91.20
39675;DHT22;27790;50.840;4.386;2023-09-07T07:22:52;25.50;90.50
39675;DHT22;27790;50.840;4.386;2023-09-07T07:25:18;26.10;90.00
39675;DHT22;27790;50.840;4.386;2023-09-07T07:27:44;26.50;88.30
39675;DHT22;27790;50.840;4.386;2023-09-07T07:30:10;27.00;87.80
39675;DHT22;27790;50.840;4.386;2023-09-07T07:32:36;27.60;86.80
39675;DHT22;27790;50.840;4.386;2023-09-07T07:35:02;28.40;85.40
39675;DHT22;27790;50.840;4.386;2023-09-07T07:37:28;29.00;84.40
39675;DHT22;27790;50.840;4.386;2023-09-07T07:39:54;29.40;82.70
39675;DHT22;27790;50.840;4.386;2023-09-07T07:42:20;29.70;82.20
39675;DHT22;27790;50.840;4.386;2023-09-07T07:44:46;30.20;80.90
39675;DHT22;27790;50.840;4.386;2023-09-07T07:47:11;30.20;80.70
39675;DHT22;27790;50.840;4.386;2023-09-07T07:49:37;30.00;80.70
39675;DHT22;27790;50.840;4.386;2023-09-07T07:52:03;29.90;80.30
39675;DHT22;27790;50.840;4.386;2023-09-07T07:54:28;30.20;80.30
39675;DHT22;27790;50.840;4.386;2023-09-07T07:56:54;30.40;79.20
39675;DHT22;27790;50.840;4.386;2023-09-07T07:59:20;30.30;79.80
39675;DHT22;27790;50.840;4.386;2023-09-07T08:01:45;30.40;79.10
39675;DHT22;27790;50.840;4.386;2023-09-07T08:04:11;30.30;78.30
39675;DHT22;27790;50.840;4.386;2023-09-07T08:06:37;30.40;78.00
39675;DHT22;27790;50.840;4.386;2023-09-07T08:09:03;30.60;78.00
39675;DHT22;27790;50.840;4.386;2023-09-07T08:11:28;30.80;77.80
39675;DHT22;27790;50.840;4.386;2023-09-07T08:13:54;30.80;77.80
39675;DHT22;27790;50.840;4.386;2023-09-07T08:16:20;30.80;77.50
39675;DHT22;27790;50.840;4.386;2023-09-07T08:18:45;30.90;76.90
39675;DHT22;27790;50.840;4.386;2023-09-07T08:21:15;30.80;77.00
39675;DHT22;27790;50.840;4.386;2023-09-07T08:23:40;31.00;76.30
39675;DHT22;27790;50.840;4.386;2023-09-07T08:26:06;31.10;76.10
39675;DHT22;27790;50.840;4.386;2023-09-07T08:28:31;31.40;75.90
39675;DHT22;27790;50.840;4.386;2023-09-07T08:30:58;31.50;74.80
39675;DHT22;27790;50.840;4.386;2023-09-07T08:33:25;31.40;75.10
39675;DHT22;27790;50.840;4.386;2023-09-07T08:35:58;31.50;76.30
39675;DHT22;27790;50.840;4.386;2023-09-07T08:38:25;31.70;76.60
39675;DHT22;27790;50.840;4.386;2023-09-07T08:40:54;32.10;74.40
39675;DHT22;27790;50.840;4.386;2023-09-07T08:43:21;32.30;73.50
39675;DHT22;27790;50.840;4.386;2023-09-07T08:45:51;32.30;73.90
39675;DHT22;27790;50.840;4.386;2023-09-07T08:48:24;32.70;74.10
39675;DHT22;27790;50.840;4.386;2023-09-07T08:50:51;32.90;72.30
39675;DHT22;27790;50.840;4.386;2023-09-07T08:53:18;32.70;71.60
39675;DHT22;27790;50.840;4.386;2023-09-07T08:55:45;32.90;72.80
39675;DHT22;27790;50.840;4.386;2023-09-07T08:58:11;33.10;71.70
39675;DHT22;27790;50.840;4.386;2023-09-07T09:00:37;32.90;71.50
39675;DHT22;27790;50.840;4.386;2023-09-07T09:03:03;32.90;71.80
39675;DHT22;27790;50.840;4.386;2023-09-07T09:05:30;32.80;72.70
39675;DHT22;27790;50.840;4.386;2023-09-07T09:10:26;32.50;71.80
39675;DHT22;27790;50.840;4.386;2023-09-07T09:12:52;31.60;73.30
39675;DHT22;27790;50.840;4.386;2023-09-07T09:15:17;31.00;74.00
39675;DHT22;27790;50.840;4.386;2023-09-07T09:17:43;30.90;74.50
39675;DHT22;27790;50.840;4.386;2023-09-07T09:20:22;30.00;74.20
39675;DHT22;27790;50.840;4.386;2023-09-07T09:22:51;29.30;76.10
39675;DHT22;27790;50.840;4.386;2023-09-07T09:25:17;28.80;78.60
39675;DHT22;27790;50.840;4.386;2023-09-07T09:27:43;28.50;78.00
39675;DHT22;27790;50.840;4.386;2023-09-07T09:30:09;28.10;78.90
39675;DHT22;27790;50.840;4.386;2023-09-07T09:32:35;27.80;79.70
39675;DHT22;27790;50.840;4.386;2023-09-07T09:35:01;27.70;79.70
39675;DHT22;27790;50.840;4.386;2023-09-07T09:37:31;27.50;80.40
39675;DHT22;27790;50.840;4.386;2023-09-07T09:39:58;27.10;80.90
39675;DHT22;27790;50.840;4.386;2023-09-07T09:42:26;27.10;81.90
39675;DHT22;27790;50.840;4.386;2023-09-07T09:44:53;27.10;82.80
39675;DHT22;27790;50.840;4.386;2023-09-07T09:47:21;27.10;81.80
39675;DHT22;27790;50.840;4.386;2023-09-07T09:49:49;26.90;83.00
39675;DHT22;27790;50.840;4.386;2023-09-07T09:52:15;26.90;83.90
39675;DHT22;27790;50.840;4.386;2023-09-07T09:54:42;27.00;83.70
39675;DHT22;27790;50.840;4.386;2023-09-07T09:57:08;26.90;83.90
39675;DHT22;27790;50.840;4.386;2023-09-07T09:59:34;27.10;86.00
39675;DHT22;27790;50.840;4.386;2023-09-07T10:02:00;27.10;84.30
39675;DHT22;27790;50.840;4.386;2023-09-07T10:04:28;27.10;85.60
39675;DHT22;27790;50.840;4.386;2023-09-07T10:07:05;27.20;85.10
39675;DHT22;27790;50.840;4.386;2023-09-07T10:09:34;27.20;84.30
39675;DHT22;27790;50.840;4.386;2023-09-07T10:12:02;27.20;84.70
39675;DHT22;27790;50.840;4.386;2023-09-07T10:14:40;27.20;84.20
39675;DHT22;27790;50.840;4.386;2023-09-07T10:17:06;27.10;83.90
39675;DHT22;27790;50.840;4.386;2023-09-07T10:19:32;27.10;84.50
39675;DHT22;27790;50.840;4.386;2023-09-07T10:21:59;27.20;86.10
39675;DHT22;27790;50.840;4.386;2023-09-07T10:24:29;27.20;84.70
39675;DHT22;27790;50.840;4.386;2023-09-07T10:29:27;27.20;85.00
39675;DHT22;27790;50.840;4.386;2023-09-07T10:31:53;27.10;85.60
39675;DHT22;27790;50.840;4.386;2023-09-07T10:34:19;27.20;84.50
39675;DHT22;27790;50.840;4.386;2023-09-07T10:36:46;27.20;84.60
39675;DHT22;27790;50.840;4.386;2023-09-07T10:39:12;27.20;85.60
39675;DHT22;27790;50.840;4.386;2023-09-07T10:41:42;27.20;84.70
39675;DHT22;27790;50.840;4.386;2023-09-07T10:44:09;27.20;85.40
39675;DHT22;27790;50.840;4.386;2023-09-07T10:46:39;27.30;86.50
39675;DHT22;27790;50.840;4.386;2023-09-07T10:49:07;27.40;86.40
39675;DHT22;27790;50.840;4.386;2023-09-07T10:51:46;27.40;85.40
39675;DHT22;27790;50.840;4.386;2023-09-07T10:54:24;27.50;84.70
39675;DHT22;27790;50.840;4.386;2023-09-07T10:56:51;27.60;85.10
39675;DHT22;27790;50.840;4.386;2023-09-07T10:59:17;27.80;86.20
39675;DHT22;27790;50.840;4.386;2023-09-07T11:01:46;27.70;84.50
39675;DHT22;27790;50.840;4.386;2023-09-07T11:04:13;27.70;84.40
39675;DHT22;27790;50.840;4.386;2023-09-07T11:06:40;27.60;86.00
39675;DHT22;27790;50.840;4.386;2023-09-07T11:09:08;27.70;85.80
39675;DHT22;27790;50.840;4.386;2023-09-07T11:11:36;27.80;84.70
39675;DHT22;27790;50.840;4.386;2023-09-07T11:14:03;27.90;85.00
39675;DHT22;27790;50.840;4.386;2023-09-07T11:16:30;27.80;84.60
39675;DHT22;27790;50.840;4.386;2023-09-07T11:18:55;27.80;84.20
39675;DHT22;27790;50.840;4.386;2023-09-07T11:21:22;27.70;85.40
39675;DHT22;27790;50.840;4.386;2023-09-07T11:23:48;27.70;83.90
39675;DHT22;27790;50.840;4.386;2023-09-07T11:26:14;27.80;84.50
39675;DHT22;27790;50.840;4.386;2023-09-07T11:28:44;27.80;83.60
39675;DHT22;27790;50.840;4.386;2023-09-07T11:31:10;27.80;83.60
39675;DHT22;27790;50.840;4.386;2023-09-07T11:33:35;27.80;83.30
39675;DHT22;27790;50.840;4.386;2023-09-07T11:36:02;27.80;83.20
39675;DHT22;27790;50.840;4.386;2023-09-07T11:38:36;27.90;82.20
39675;DHT22;27790;50.840;4.386;2023-09-07T11:41:03;27.80;81.80
39675;DHT22;27790;50.840;4.386;2023-09-07T11:43:28;27.80;82.30
39675;DHT22;27790;50.840;4.386;2023-09-07T11:45:54;27.90;83.30
39675;DHT22;27790;50.840;4.386;2023-09-07T11:48:20;28.00;81.70
39675;DHT22;27790;50.840;4.386;2023-09-07T11:50:45;28.10;81.80
39675;DHT22;27790;50.840;4.386;2023-09-07T11:53:11;28.10;81.10
39675;DHT22;27790;50.840;4.386;2023-09-07T11:55:37;28.20;80.40
39675;DHT22;27790;50.840;4.386;2023-09-07T11:58:04;28.20;80.50
39675;DHT22;27790;50.840;4.386;2023-09-07T12:00:32;28.20;81.10
39675;DHT22;27790;50.840;4.386;2023-09-07T12:02:58;28.30;82.20
39675;DHT22;27790;50.840;4.386;2023-09-07T12:05:24;28.20;80.20
39675;DHT22;27790;50.840;4.386;2023-09-07T12:07:50;28.20;81.40
39675;DHT22;27790;50.840;4.386;2023-09-07T12:10:15;28.20;80.90
39675;DHT22;27790;50.840;4.386;2023-09-07T12:12:41;28.30;82.10
39675;DHT22;27790;50.840;4.386;2023-09-07T12:15:08;28.40;81.80
39675;DHT22;27790;50.840;4.386;2023-09-07T12:17:34;28.40;80.30
39675;DHT22;27790;50.840;4.386;2023-09-07T12:20:00;28.50;80.30
39675;DHT22;27790;50.840;4.386;2023-09-07T12:22:26;28.50;80.70
39675;DHT22;27790;50.840;4.386;2023-09-07T12:24:52;28.40;80.40
39675;DHT22;27790;50.840;4.386;2023-09-07T12:27:18;28.50;80.20
39675;DHT22;27790;50.840;4.386;2023-09-07T12:29:44;28.50;80.40
39675;DHT22;27790;50.840;4.386;2023-09-07T12:32:10;28.50;80.40
39675;DHT22;27790;50.840;4.386;2023-09-07T12:34:36;28.50;81.20
39675;DHT22;27790;50.840;4.386;2023-09-07T12:37:02;28.50;81.10
39675;DHT22;27790;50.840;4.386;2023-09-07T12:39:31;28.40;80.40
39675;DHT22;27790;50.840;4.386;2023-09-07T12:41:57;28.40;81.20
39675;DHT22;27790;50.840;4.386;2023-09-07T12:44:23;28.50;81.10
39675;DHT22;27790;50.840;4.386;2023-09-07T12:46:48;28.60;80.60
39675;DHT22;27790;50.840;4.386;2023-09-07T12:49:14;28.80;79.20
39675;DHT22;27790;50.840;4.386;2023-09-07T12:51:45;28.80;79.80
39675;DHT22;27790;50.840;4.386;2023-09-07T12:54:11;28.90;80.20
39675;DHT22;27790;50.840;4.386;2023-09-07T12:56:36;28.90;81.00
39675;DHT22;27790;50.840;4.386;2023-09-07T12:59:02;29.00;80.20
39675;DHT22;27790;50.840;4.386;2023-09-07T13:01:29;29.00;79.40
39675;DHT22;27790;50.840;4.386;2023-09-07T13:03:55;29.00;79.70
39675;DHT22;27790;50.840;4.386;2023-09-07T13:06:20;29.00;80.30
39675;DHT22;27790;50.840;4.386;2023-09-07T13:08:46;28.90;79.70
39675;DHT22;27790;50.840;4.386;2023-09-07T13:11:12;29.00;79.50
39675;DHT22;27790;50.840;4.386;2023-09-07T13:13:37;28.90;79.50
39675;DHT22;27790;50.840;4.386;2023-09-07T13:16:04;29.00;79.50
39675;DHT22;27790;50.840;4.386;2023-09-07T13:18:29;29.00;78.80
39675;DHT22;27790;50.840;4.386;2023-09-07T13:20:56;29.10;80.20
39675;DHT22;27790;50.840;4.386;2023-09-07T13:23:28;29.10;79.00
39675;DHT22;27790;50.840;4.386;2023-09-07T13:25:57;29.10;79.10
39675;DHT22;27790;50.840;4.386;2023-09-07T13:28:23;29.10;79.80
39675;DHT22;27790;50.840;4.386;2023-09-07T13:30:50;29.10;79.80
39675;DHT22;27790;50.840;4.386;2023-09-07T13:33:16;29.20;79.60
39675;DHT22;27790;50.840;4.386;2023-09-07T13:35:41;29.00;79.80
39675;DHT22;27790;50.840;4.386;2023-09-07T13:38:07;29.00;81.00
39675;DHT22;27790;50.840;4.386;2023-09-07T13:40:32;28.90;80.70
39675;DHT22;27790;50.840;4.386;2023-09-07T13:42:58;29.00;80.30
39675;DHT22;27790;50.840;4.386;2023-09-07T13:45:24;29.00;81.30
39675;DHT22;27790;50.840;4.386;2023-09-07T13:47:50;29.10;81.00
39675;DHT22;27790;50.840;4.386;2023-09-07T13:50:16;29.10;81.30
39675;DHT22;27790;50.840;4.386;2023-09-07T13:52:41;29.10;80.90
39675;DHT22;27790;50.840;4.386;2023-09-07T13:55:07;29.20;80.40
39675;DHT22;27790;50.840;4.386;2023-09-07T13:57:33;29.20;80.50
39675;DHT22;27790;50.840;4.386;2023-09-07T14:00:00;29.30;82.20
39675;DHT22;27790;50.840;4.386;2023-09-07T14:02:25;29.30;80.50
39675;DHT22;27790;50.840;4.386;2023-09-07T14:04:51;29.30;80.70
39675;DHT22;27790;50.840;4.386;2023-09-07T14:07:17;29.40;81.90
39675;DHT22;27790;50.840;4.386;2023-09-07T14:09:43;29.40;81.00
39675;DHT22;27790;50.840;4.386;2023-09-07T14:12:09;29.40;81.00
39675;DHT22;27790;50.840;4.386;2023-09-07T14:14:35;29.50;81.00
39675;DHT22;27790;50.840;4.386;2023-09-07T14:17:01;29.60;80.90
39675;DHT22;27790;50.840;4.386;2023-09-07T14:19:27;29.70;80.30
39675;DHT22;27790;50.840;4.386;2023-09-07T14:21:56;29.70;79.70
39675;DHT22;27790;50.840;4.386;2023-09-07T14:24:23;29.80;79.60
39675;DHT22;27790;50.840;4.386;2023-09-07T14:26:49;29.80;79.50
39675;DHT22;27790;50.840;4.386;2023-09-07T14:29:14;29.80;79.00
39675;DHT22;27790;50.840;4.386;2023-09-07T14:31:40;30.00;80.30
39675;DHT22;27790;50.840;4.386;2023-09-07T14:34:08;30.00;79.50
39675;DHT22;27790;50.840;4.386;2023-09-07T14:36:33;30.00;79.30
39675;DHT22;27790;50.840;4.386;2023-09-07T14:38:59;30.10;78.90
39675;DHT22;27790;50.840;4.386;2023-09-07T14:41:24;30.00;79.00
39675;DHT22;27790;50.840;4.386;2023-09-07T14:43:50;30.00;79.50
39675;DHT22;27790;50.840;4.386;2023-09-07T14:46:16;30.00;79.70
39675;DHT22;27790;50.840;4.386;2023-09-07T14:48:43;30.00;79.10
39675;DHT22;27790;50.840;4.386;2023-09-07T14:51:09;30.10;79.20
39675;DHT22;27790;50.840;4.386;2023-09-07T14:53:35;30.10;79.30
39675;DHT22;27790;50.840;4.386;2023-09-07T14:56:01;30.00;79.20
39675;DHT22;27790;50.840;4.386;2023-09-07T14:58:27;30.00;80.00
39675;DHT22;27790;50.840;4.386;2023-09-07T15:00:52;30.00;80.80
39675;DHT22;27790;50.840;4.386;2023-09-07T15:03:18;30.00;81.10
39675;DHT22;27790;50.840;4.386;2023-09-07T15:05:43;30.00;81.60
39675;DHT22;27790;50.840;4.386;2023-09-07T15:08:09;30.00;81.70
39675;DHT22;27790;50.840;4.386;2023-09-07T15:10:37;30.00;82.20
39675;DHT22;27790;50.840;4.386;2023-09-07T15:13:03;29.90;82.30
39675;DHT22;27790;50.840;4.386;2023-09-07T15:15:30;29.80;82.40
39675;DHT22;27790;50.840;4.386;2023-09-07T15:17:59;29.80;82.60
39675;DHT22;27790;50.840;4.386;2023-09-07T15:20:25;29.80;82.70
39675;DHT22;27790;50.840;4.386;2023-09-07T15:22:51;30.00;83.00
39675;DHT22;27790;50.840;4.386;2023-09-07T15:25:16;29.80;82.50
39675;DHT22;27790;50.840;4.386;2023-09-07T15:27:45;29.80;82.70
39675;DHT22;27790;50.840;4.386;2023-09-07T15:30:11;29.80;83.00